sensor_id;sensor_type;location;lat;lon;timestamp;pressure;altitude;pressure_sealevel;temperature;humidity
8697;BME280;4385;48.848;8.924;2022-07-23T00:02:25;97368.38;;;25.99;100.00
8697;BME280;4385;48.848;8.924;2022-07-23T00:04:50;97373.44;;;26.01;100.00
8697;BME280;4385;48.848;8.924;2022-07-23T00:07:15;97370.94;;;25.99;100.00
8697;BME280;4385;48.848;8.924;2022-07-23T00:09:41;97373.69;;;25.96;100.00
8697;BME280;4385;48.848;8.924;2022-07-23T00:12:06;97369.44;;;25.95;100.00
8697;BME280;4385;48.848;8.924;2022-07-23T00:14:31;97355.63;;;25.96;100.00
8697;BME280;4385;48.848;8.924;2022-07-23T00:16:57;97347.13;;;25.94;100.00
8697;BME280;4385;48.848;8.924;2022-07-23T00:19:22;97355.72;;;25.95;100.00
8697;BME280;4385;48.848;8.924;2022-07-23T00:21:47;97360.97;;;25.93;100.00
8697;BME280;4385;48.848;8.924;2022-07-23T00:24:12;97356.69;;;25.92;100.00
8697;BME280;4385;48.848;8.924;2022-07-23T00:26:38;97355.03;;;25.91;100.00
8697;BME280;4385;48.848;8.924;2022-07-23T00:29:03;97349.88;;;25.91;100.00
8697;BME280;4385;48.848;8.924;2022-07-23T00:31:28;97351.69;;;25.89;100.00
8697;BME280;4385;48.848;8.924;2022-07-23T00:33:54;97356.88;;;25.89;100.00
8697;BME280;4385;48.848;8.924;2022-07-23T00:36:25;97352.63;;;25.88;100.00
8697;BME280;4385;48.848;8.924;2022-07-23T00:38:50;97348.41;;;25.87;100.00
8697;BME280;4385;48.848;8.924;2022-07-23T00:41:16;97350.06;;;25.88;100.00
8697;BME280;4385;48.848;8.924;2022-07-23T00:43:41;97337.16;;;25.88;100.00
8697;BME280;4385;48.848;8.924;2022-07-23T00:46:06;97325.16;;;25.87;100.00
8697;BME280;4385;48.848;8.924;2022-07-23T00:48:32;97332.06;;;25.86;100.00
8697;BME280;4385;48.848;8.924;2022-07-23T00:50:57;97338.97;;;25.86;100.00
8697;BME280;4385;48.848;8.924;2022-07-23T00:53:23;97342.41;;;25.86;100.00
8697;BME280;4385;48.848;8.924;2022-07-23T00:55:48;97338.88;;;25.87;100.00
8697;BME280;4385;48.848;8.924;2022-07-23T00:58:15;97339.47;;;25.93;100.00
8697;BME280;4385;48.848;8.924;2022-07-23T01:00:41;97340.22;;;25.95;100.00
8697;BME280;4385;48.848;8.924;2022-07-23T01:03:06;97330.53;;;25.98;100.00
8697;BME280;4385;48.848;8.924;2022-07-23T01:05:32;97343.28;;;26.01;100.00
8697;BME280;4385;48.848;8.924;2022-07-23T01:07:58;97335.31;;;25.90;100.00
8697;BME280;4385;48.848;8.924;2022-07-23T01:10:24;97343.41;;;25.84;100.00
8697;BME280;4385;48.848;8.924;2022-07-23T01:13:04;97339.13;;;25.83;100.00
8697;BME280;4385;48.848;8.924;2022-07-23T01:15:30;97324.59;;;25.82;100.00
8697;BME280;4385;48.848;8.924;2022-07-23T01:17:56;97327.25;;;25.80;100.00
8697;BME280;4385;48.848;8.924;2022-07-23T01:20:22;97341.88;;;25.80;100.00
8697;BME280;4385;48.848;8.924;2022-07-23T01:22:47;97331.56;;;25.80;100.00
8697;BME280;4385;48.848;8.924;2022-07-23T01:25:13;97316.09;;;25.80;100.00
8697;BME280;4385;48.848;8.924;2022-07-23T01:27:38;97304.09;;;25.78;100.00
8697;BME280;4385;48.848;8.924;2022-07-23T01:30:04;97301.63;;;25.77;100.00
8697;BME280;4385;48.848;8.924;2022-07-23T01:32:30;97297.38;;;25.76;100.00
8697;BME280;4385;48.848;8.924;2022-07-23T01:34:55;97293.97;;;25.75;100.00
8697;BME280;4385;48.848;8.924;2022-07-23T01:37:21;97304.44;;;25.72;100.00
8697;BME280;4385;48.848;8.924;2022-07-23T01:39:46;97307.03;;;25.72;100.00
8697;BME280;4385;48.848;8.924;2022-07-23T01:42:12;97319.16;;;25.70;100.00
8697;BME280;4385;48.848;8.924;2022-07-23T01:44:38;97315.69;;;25.71;100.00
8697;BME280;4385;48.848;8.924;2022-07-23T01:47:03;97319.16;;;25.70;100.00
8697;BME280;4385;48.848;8.924;2022-07-23T01:49:29;97325.34;;;25.68;100.00
8697;BME280;4385;48.848;8.924;2022-07-23T01:51:54;97315.94;;;25.67;100.00
8697;BME280;4385;48.848;8.924;2022-07-23T01:54:35;97310.78;;;25.67;100.00
8697;BME280;4385;48.848;8.924;2022-07-23T01:57:00;97317.78;;;25.64;100.00
8697;BME280;4385;48.848;8.924;2022-07-23T01:59:27;97301.28;;;25.67;100.00
8697;BME280;4385;48.848;8.924;2022-07-23T02:01:53;97298.88;;;25.64;100.00
8697;BME280;4385;48.848;8.924;2022-07-23T02:04:20;97304.94;;;25.63;100.00
8697;BME280;4385;48.848;8.924;2022-07-23T02:06:46;97316.13;;;25.63;100.00
8697;BME280;4385;48.848;8.924;2022-07-23T02:09:12;97329.09;;;25.62;100.00
8697;BME280;4385;48.848;8.924;2022-07-23T02:11:37;97336.88;;;25.60;100.00
8697;BME280;4385;48.848;8.924;2022-07-23T02:14:03;97350.69;;;25.59;100.00
8697;BME280;4385;48.848;8.924;2022-07-23T02:16:28;97352.44;;;25.59;100.00
8697;BME280;4385;48.848;8.924;2022-07-23T02:18:54;97349.13;;;25.57;100.00
8697;BME280;4385;48.848;8.924;2022-07-23T02:21:19;97350.78;;;25.58;100.00
8697;BME280;4385;48.848;8.924;2022-07-23T02:23:45;97356.84;;;25.57;100.00
8697;BME280;4385;48.848;8.924;2022-07-23T02:26:10;97357.78;;;25.56;100.00
8697;BME280;4385;48.848;8.924;2022-07-23T02:28:35;97365.53;;;25.56;100.00
8697;BME280;4385;48.848;8.924;2022-07-23T02:31:01;97365.53;;;25.56;100.00
8697;BME280;4385;48.848;8.924;2022-07-23T02:33:26;97367.34;;;25.53;100.00
8697;BME280;4385;48.848;8.924;2022-07-23T02:35:51;97364.91;;;25.50;100.00
8697;BME280;4385;48.848;8.924;2022-07-23T02:38:17;97371.00;;;25.49;100.00
8697;BME280;4385;48.848;8.924;2022-07-23T02:40:42;97370.25;;;25.47;100.00
8697;BME280;4385;48.848;8.924;2022-07-23T02:43:07;97369.31;;;25.48;100.00
8697;BME280;4385;48.848;8.924;2022-07-23T02:45:33;97377.13;;;25.47;100.00
8697;BME280;4385;48.848;8.924;2022-07-23T02:47:58;97386.66;;;25.46;100.00
8697;BME280;4385;48.848;8.924;2022-07-23T02:50:23;97391.03;;;25.44;100.00
8697;BME280;4385;48.848;8.924;2022-07-23T02:52:50;97412.59;;;25.43;100.00
8697;BME280;4385;48.848;8.924;2022-07-23T02:55:15;97408.41;;;25.40;100.00
8697;BME280;4385;48.848;8.924;2022-07-23T02:57:40;97414.41;;;25.41;100.00
8697;BME280;4385;48.848;8.924;2022-07-23T03:00:07;97410.19;;;25.40;100.00
8697;BME280;4385;48.848;8.924;2022-07-23T03:02:32;97417.91;;;25.40;100.00
8697;BME280;4385;48.848;8.924;2022-07-23T03:04:58;97412.75;;;25.40;100.00
8697;BME280;4385;48.848;8.924;2022-07-23T03:07:23;97417.91;;;25.40;100.00
8697;BME280;4385;48.848;8.924;2022-07-23T03:09:48;97417.00;;;25.41;100.00
8697;BME280;4385;48.848;8.924;2022-07-23T03:12:14;97410.91;;;25.42;100.00
8697;BME280;4385;48.848;8.924;2022-07-23T03:14:40;97409.19;;;25.43;100.00
8697;BME280;4385;48.848;8.924;2022-07-23T03:17:05;97404.88;;;25.43;100.00
8697;BME280;4385;48.848;8.924;2022-07-23T03:19:30;97404.88;;;25.43;100.00
8697;BME280;4385;48.848;8.924;2022-07-23T03:21:56;97398.03;;;25.42;100.00
8697;BME280;4385;48.848;8.924;2022-07-23T03:24:21;97404.94;;;25.42;100.00
8697;BME280;4385;48.848;8.924;2022-07-23T03:26:49;97407.34;;;25.45;100.00
8697;BME280;4385;48.848;8.924;2022-07-23T03:29:14;97404.78;;;25.45;100.00
8697;BME280;4385;48.848;8.924;2022-07-23T03:31:39;97400.50;;;25.44;100.00
8697;BME280;4385;48.848;8.924;2022-07-23T03:34:05;97404.88;;;25.43;100.00
8697;BME280;4385;48.848;8.924;2022-07-23T03:36:30;97410.91;;;25.42;100.00
8697;BME280;4385;48.848;8.924;2022-07-23T03:38:55;97410.09;;;25.42;100.00
8697;BME280;4385;48.848;8.924;2022-07-23T03:41:20;97411.00;;;25.40;100.00
8697;BME280;4385;48.848;8.924;2022-07-23T03:43:46;97410.19;;;25.40;100.00
8697;BME280;4385;48.848;8.924;2022-07-23T03:46:12;97409.25;;;25.41;100.00
8697;BME280;4385;48.848;8.924;2022-07-23T03:48:37;97414.41;;;25.41;100.00
8697;BME280;4385;48.848;8.924;2022-07-23T03:51:03;97412.75;;;25.40;100.00
8697;BME280;4385;48.848;8.924;2022-07-23T03:53:29;97414.41;;;25.41;100.00
8697;BME280;4385;48.848;8.924;2022-07-23T03:55:54;97411.06;;;25.39;100.00
8697;BME280;4385;48.848;8.924;2022-07-23T03:58:20;97417.91;;;25.40;100.00
8697;BME280;4385;48.848;8.924;2022-07-23T04:00:45;97426.56;;;25.39;100.00
8697;BME280;4385;48.848;8.924;2022-07-23T04:03:11;97428.41;;;25.37;100.00
8697;BME280;4385;48.848;8.924;2022-07-23T04:05:36;97429.28;;;25.36;100.00
8697;BME280;4385;48.848;8.924;2022-07-23T04:08:01;97432.78;;;25.35;100.00
8697;BME280;4385;48.848;8.924;2022-07-23T04:10:27;97427.72;;;25.33;100.00
8697;BME280;4385;48.848;8.924;2022-07-23T04:12:52;97427.78;;;25.32;100.00
8697;BME280;4385;48.848;8.924;2022-07-23T04:15:17;97433.03;;;25.30;100.00
8697;BME280;4385;48.848;8.924;2022-07-23T04:17:43;97415.91;;;25.29;100.00
8697;BME280;4385;48.848;8.924;2022-07-23T04:20:10;97423.72;;;25.27;100.00
8697;BME280;4385;48.848;8.924;2022-07-23T04:22:35;97424.59;;;25.26;100.00
8697;BME280;4385;48.848;8.924;2022-07-23T04:25:01;97417.78;;;25.25;100.00
8697;BME280;4385;48.848;8.924;2022-07-23T04:27:27;97420.38;;;25.25;100.00
8697;BME280;4385;48.848;8.924;2022-07-23T04:29:52;97417.72;;;25.27;100.00
8697;BME280;4385;48.848;8.924;2022-07-23T04:32:17;97425.38;;;25.28;100.00
8697;BME280;4385;48.848;8.924;2022-07-23T04:34:43;97423.63;;;25.29;100.00
8697;BME280;4385;48.848;8.924;2022-07-23T04:37:08;97418.47;;;25.29;100.00
8697;BME280;4385;48.848;8.924;2022-07-23T04:39:33;97413.31;;;25.29;100.00
8697;BME280;4385;48.848;8.924;2022-07-23T04:41:59;97413.25;;;25.31;100.00
8697;BME280;4385;48.848;8.924;2022-07-23T04:44:24;97414.06;;;25.31;100.00
8697;BME280;4385;48.848;8.924;2022-07-23T04:46:49;97413.09;;;25.34;100.00
8697;BME280;4385;48.848;8.924;2022-07-23T04:49:15;97407.94;;;25.34;100.00
8697;BME280;4385;48.848;8.924;2022-07-23T04:51:40;97421.56;;;25.36;100.00
8697;BME280;4385;48.848;8.924;2022-07-23T04:54:05;97428.41;;;25.37;100.00
8697;BME280;4385;48.848;8.924;2022-07-23T04:56:31;97431.72;;;25.39;100.00
8697;BME280;4385;48.848;8.924;2022-07-23T04:58:56;97426.06;;;25.48;100.00
8697;BME280;4385;48.848;8.924;2022-07-23T05:01:22;97434.13;;;25.42;100.00
8697;BME280;4385;48.848;8.924;2022-07-23T05:03:47;97439.44;;;25.39;100.00
8697;BME280;4385;48.848;8.924;2022-07-23T05:06:13;97448.19;;;25.36;100.00
8697;BME280;4385;48.848;8.924;2022-07-23T05:08:39;97449.03;;;25.37;100.00
8697;BME280;4385;48.848;8.924;2022-07-23T05:11:04;97464.50;;;25.37;100.00
8697;BME280;4385;48.848;8.924;2022-07-23T05:13:30;97454.19;;;25.37;100.00
8697;BME280;4385;48.848;8.924;2022-07-23T05:15:55;97450.84;;;25.35;100.00
8697;BME280;4385;48.848;8.924;2022-07-23T05:18:21;97435.69;;;25.28;100.00
8697;BME280;4385;48.848;8.924;2022-07-23T05:20:46;97447.16;;;25.23;100.00
8697;BME280;4385;48.848;8.924;2022-07-23T05:23:11;97448.91;;;25.05;100.00
8697;BME280;4385;48.848;8.924;2022-07-23T05:25:37;97455.91;;;25.02;100.00
8697;BME280;4385;48.848;8.924;2022-07-23T05:28:02;97463.44;;;24.88;100.00
8697;BME280;4385;48.848;8.924;2022-07-23T05:30:28;97473.91;;;24.85;100.00
8697;BME280;4385;48.848;8.924;2022-07-23T05:32:53;97478.91;;;24.88;100.00
8697;BME280;4385;48.848;8.924;2022-07-23T05:35:19;97483.09;;;24.90;100.00
8697;BME280;4385;48.848;8.924;2022-07-23T05:37:44;97490.59;;;24.95;100.00
8697;BME280;4385;48.848;8.924;2022-07-23T05:40:10;97481.97;;;24.96;100.00
8697;BME280;4385;48.848;8.924;2022-07-23T05:42:37;97491.44;;;24.96;100.00
8697;BME280;4385;48.848;8.924;2022-07-23T05:45:04;97509.50;;;24.96;100.00
8697;BME280;4385;48.848;8.924;2022-07-23T05:47:42;97520.72;;;24.95;100.00
8697;BME280;4385;48.848;8.924;2022-07-23T05:50:07;97521.81;;;24.89;100.00
8697;BME280;4385;48.848;8.924;2022-07-23T05:52:33;97510.06;;;24.83;100.00
8697;BME280;4385;48.848;8.924;2022-07-23T05:54:58;97503.91;;;24.86;100.00
8697;BME280;4385;48.848;8.924;2022-07-23T05:57:24;97506.41;;;24.87;100.00
8697;BME280;4385;48.848;8.924;2022-07-23T05:59:49;97504.34;;;24.76;100.00
8697;BME280;4385;48.848;8.924;2022-07-23T06:02:14;97505.34;;;24.74;100.00
8697;BME280;4385;48.848;8.924;2022-07-23T06:04:40;97502.63;;;24.77;100.00
8697;BME280;4385;48.848;8.924;2022-07-23T06:07:05;97493.31;;;24.74;100.00
8697;BME280;4385;48.848;8.924;2022-07-23T06:09:30;97484.56;;;24.77;100.00
8697;BME280;4385;48.848;8.924;2022-07-23T06:11:56;97478.06;;;24.70;100.00
8697;BME280;4385;48.848;8.924;2022-07-23T06:14:21;97480.00;;;24.64;100.00
8697;BME280;4385;48.848;8.924;2022-07-23T06:16:46;97490.25;;;24.66;100.00
8697;BME280;4385;48.848;8.924;2022-07-23T06:19:12;97509.13;;;24.66;100.00
8697;BME280;4385;48.848;8.924;2022-07-23T06:21:37;97514.13;;;24.70;100.00
8697;BME280;4385;48.848;8.924;2022-07-23T06:24:02;97514.81;;;24.73;100.00
8697;BME280;4385;48.848;8.924;2022-07-23T06:26:28;97517.22;;;24.76;100.00
8697;BME280;4385;48.848;8.924;2022-07-23T06:28:53;97522.25;;;24.79;100.00
8697;BME280;4385;48.848;8.924;2022-07-23T06:31:18;97527.25;;;24.83;100.00
8697;BME280;4385;48.848;8.924;2022-07-23T06:33:44;97537.41;;;24.86;100.00
8697;BME280;4385;48.848;8.924;2022-07-23T06:36:09;97538.19;;;24.88;100.00
8697;BME280;4385;48.848;8.924;2022-07-23T06:38:34;97545.78;;;24.91;100.00
8697;BME280;4385;48.848;8.924;2022-07-23T06:41:00;97568.91;;;24.93;100.00
8697;BME280;4385;48.848;8.924;2022-07-23T06:43:25;97569.75;;;24.93;100.00
8697;BME280;4385;48.848;8.924;2022-07-23T06:45:51;97574.91;;;24.93;100.00
8697;BME280;4385;48.848;8.924;2022-07-23T06:48:16;97577.50;;;24.93;100.00
8697;BME280;4385;48.848;8.924;2022-07-23T06:50:41;97577.50;;;24.93;100.00
8697;BME280;4385;48.848;8.924;2022-07-23T06:53:07;97575.50;;;24.98;100.00
8697;BME280;4385;48.848;8.924;2022-07-23T06:55:32;97575.13;;;25.06;100.00
8697;BME280;4385;48.848;8.924;2022-07-23T06:57:58;97559.38;;;25.12;100.00
8697;BME280;4385;48.848;8.924;2022-07-23T07:00:23;97543.69;;;25.17;100.00
8697;BME280;4385;48.848;8.924;2022-07-23T07:02:53;97527.16;;;25.21;100.00
8697;BME280;4385;48.848;8.924;2022-07-23T07:05:18;97545.00;;;25.26;100.00
8697;BME280;4385;48.848;8.924;2022-07-23T07:07:44;97546.56;;;25.28;100.00
8697;BME280;4385;48.848;8.924;2022-07-23T07:10:09;97556.81;;;25.30;100.00
8697;BME280;4385;48.848;8.924;2022-07-23T07:12:34;97551.72;;;25.28;100.00
8697;BME280;4385;48.848;8.924;2022-07-23T07:15:00;97547.41;;;25.29;100.00
8697;BME280;4385;48.848;8.924;2022-07-23T07:17:25;97571.28;;;25.33;100.00
8697;BME280;4385;48.848;8.924;2022-07-23T07:19:50;97559.16;;;25.35;100.00
8697;BME280;4385;48.848;8.924;2022-07-23T07:22:16;97549.63;;;25.37;100.00
8697;BME280;4385;48.848;8.924;2022-07-23T07:24:41;97534.88;;;25.39;100.00
8697;BME280;4385;48.848;8.924;2022-07-23T07:27:06;97542.38;;;25.44;100.00
8697;BME280;4385;48.848;8.924;2022-07-23T07:29:32;97547.38;;;25.47;100.00
8697;BME280;4385;48.848;8.924;2022-07-23T07:31:57;97554.81;;;25.53;100.00
8697;BME280;4385;48.848;8.924;2022-07-23T07:34:22;97552.00;;;25.58;100.00
8697;BME280;4385;48.848;8.924;2022-07-23T07:36:48;97564.78;;;25.61;100.00
8697;BME280;4385;48.848;8.924;2022-07-23T07:39:14;97568.25;;;25.60;100.00
8697;BME280;4385;48.848;8.924;2022-07-23T07:41:40;97577.72;;;25.59;100.00
8697;BME280;4385;48.848;8.924;2022-07-23T07:44:05;97587.16;;;25.60;100.00
8697;BME280;4385;48.848;8.924;2022-07-23T07:46:31;97576.91;;;25.59;100.00
8697;BME280;4385;48.848;8.924;2022-07-23T07:48:56;97574.22;;;25.62;100.00
8697;BME280;4385;48.848;8.924;2022-07-23T07:51:21;97569.78;;;25.64;100.00
8697;BME280;4385;48.848;8.924;2022-07-23T07:53:47;97568.81;;;25.67;100.00
8697;BME280;4385;48.848;8.924;2022-07-23T07:56:12;97567.81;;;25.69;100.00
8697;BME280;4385;48.848;8.924;2022-07-23T07:58:37;97567.81;;;25.69;100.00
8697;BME280;4385;48.848;8.924;2022-07-23T08:01:03;97573.81;;;25.70;100.00
8697;BME280;4385;48.848;8.924;2022-07-23T08:03:29;97579.06;;;25.68;100.00
8697;BME280;4385;48.848;8.924;2022-07-23T08:05:54;97578.22;;;25.68;100.00
8697;BME280;4385;48.848;8.924;2022-07-23T08:08:20;97575.72;;;25.66;100.00
8697;BME280;4385;48.848;8.924;2022-07-23T08:10:45;97574.78;;;25.67;100.00
8697;BME280;4385;48.848;8.924;2022-07-23T08:13:15;97581.03;;;25.63;100.00
8697;BME280;4385;48.848;8.924;2022-07-23T08:15:42;97575.09;;;25.61;100.00
8697;BME280;4385;48.848;8.924;2022-07-23T08:18:08;97573.50;;;25.58;100.00
8697;BME280;4385;48.848;8.924;2022-07-23T08:20:33;97577.00;;;25.57;100.00
8697;BME280;4385;48.848;8.924;2022-07-23T08:23:08;97585.53;;;25.58;100.00
8697;BME280;4385;48.848;8.924;2022-07-23T08:25:40;97582.06;;;25.59;100.00
8697;BME280;4385;48.848;8.924;2022-07-23T08:28:07;97597.56;;;25.59;100.00
8697;BME280;4385;48.848;8.924;2022-07-23T08:30:34;97596.84;;;25.55;100.00
8697;BME280;4385;48.848;8.924;2022-07-23T08:35:35;97594.34;;;25.53;100.00
8697;BME280;4385;48.848;8.924;2022-07-23T08:38:04;97588.03;;;25.59;100.00
8697;BME280;4385;48.848;8.924;2022-07-23T08:40:33;97585.25;;;25.64;100.00
8697;BME280;4385;48.848;8.924;2022-07-23T08:43:00;97590.13;;;25.70;100.00
8697;BME280;4385;48.848;8.924;2022-07-23T08:45:29;97583.97;;;25.73;100.00
8697;BME280;4385;48.848;8.924;2022-07-23T08:47:57;97590.81;;;25.74;100.00
8697;BME280;4385;48.848;8.924;2022-07-23T08:50:26;97585.47;;;25.77;100.00
8697;BME280;4385;48.848;8.924;2022-07-23T08:52:52;97589.66;;;25.80;100.00
8697;BME280;4385;48.848;8.924;2022-07-23T08:55:19;97583.50;;;25.82;100.00
8697;BME280;4385;48.848;8.924;2022-07-23T08:57:48;97580.00;;;25.83;100.00
8697;BME280;4385;48.848;8.924;2022-07-23T09:00:14;97576.50;;;25.84;100.00
8697;BME280;4385;48.848;8.924;2022-07-23T09:02:41;97584.16;;;25.86;100.00
8697;BME280;4385;48.848;8.924;2022-07-23T09:05:07;97580.69;;;25.87;100.00
8697;BME280;4385;48.848;8.924;2022-07-23T09:07:33;97587.34;;;25.91;100.00
8697;BME280;4385;48.848;8.924;2022-07-23T09:10:09;97582.88;;;25.95;100.00
8697;BME280;4385;48.848;8.924;2022-07-23T09:12:36;97583.38;;;26.01;100.00
8697;BME280;4385;48.848;8.924;2022-07-23T09:15:07;97587.56;;;26.04;100.00
8697;BME280;4385;48.848;8.924;2022-07-23T09:17:40;97586.56;;;26.07;100.00
8697;BME280;4385;48.848;8.924;2022-07-23T09:20:10;97588.97;;;26.10;100.00
8697;BME280;4385;48.848;8.924;2022-07-23T09:22:36;97589.75;;;26.12;100.00
8697;BME280;4385;48.848;8.924;2022-07-23T09:27:56;97575.59;;;26.19;100.00
8697;BME280;4385;48.848;8.924;2022-07-23T09:30:24;97574.59;;;26.22;100.00
8697;BME280;4385;48.848;8.924;2022-07-23T09:35:52;97583.63;;;26.31;100.00
8697;BME280;4385;48.848;8.924;2022-07-23T09:38:20;97587.78;;;26.33;100.00
8697;BME280;4385;48.848;8.924;2022-07-23T09:40:47;97593.63;;;26.37;100.00
8697;BME280;4385;48.848;8.924;2022-07-23T09:43:29;97578.88;;;26.39;100.00
8697;BME280;4385;48.848;8.924;2022-07-23T09:48:48;97579.63;;;26.41;100.00
8697;BME280;4385;48.848;8.924;2022-07-23T09:51:14;97577.81;;;26.43;100.00
8697;BME280;4385;48.848;8.924;2022-07-23T09:53:46;97577.81;;;26.43;100.00
8697;BME280;4385;48.848;8.924;2022-07-23T09:56:13;97574.22;;;26.46;100.00
8697;BME280;4385;48.848;8.924;2022-07-23T09:58:41;97578.47;;;26.47;100.00
8697;BME280;4385;48.848;8.924;2022-07-23T10:01:17;97574.13;;;26.47;100.00
8697;BME280;4385;48.848;8.924;2022-07-23T10:03:43;97584.47;;;26.47;100.00
8697;BME280;4385;48.848;8.924;2022-07-23T10:06:13;97586.13;;;26.48;100.00
8697;BME280;4385;48.848;8.924;2022-07-23T10:08:44;97576.56;;;26.50;100.00
8697;BME280;4385;48.848;8.924;2022-07-23T10:11:13;97586.81;;;26.52;100.00
8697;BME280;4385;48.848;8.924;2022-07-23T10:13:40;97581.63;;;26.52;100.00
8697;BME280;4385;48.848;8.924;2022-07-23T10:16:25;97583.22;;;26.55;100.00
8697;BME280;4385;48.848;8.924;2022-07-23T10:18:51;97588.47;;;26.53;100.00
8697;BME280;4385;48.848;8.924;2022-07-23T10:21:40;97585.97;;;26.51;100.00
8697;BME280;4385;48.848;8.924;2022-07-23T10:24:18;97581.88;;;26.47;100.00
8697;BME280;4385;48.848;8.924;2022-07-23T10:30:03;97581.28;;;26.42;100.00
8697;BME280;4385;48.848;8.924;2022-07-23T10:33:09;97577.06;;;26.41;100.00
8697;BME280;4385;48.848;8.924;2022-07-23T10:38:40;97571.28;;;26.36;100.00
8697;BME280;4385;48.848;8.924;2022-07-23T10:41:08;97572.38;;;26.32;100.00
8697;BME280;4385;48.848;8.924;2022-07-23T10:43:33;97579.34;;;26.30;100.00
8697;BME280;4385;48.848;8.924;2022-07-23T10:46:24;97580.44;;;26.25;100.00
8697;BME280;4385;48.848;8.924;2022-07-23T10:49:27;97581.59;;;26.20;100.00
8697;BME280;4385;48.848;8.924;2022-07-23T10:52:19;97589.50;;;26.17;100.00
8697;BME280;4385;48.848;8.924;2022-07-23T10:57:17;97582.91;;;26.11;100.00
8697;BME280;4385;48.848;8.924;2022-07-23T11:02:49;97585.88;;;26.03;100.00
8697;BME280;4385;48.848;8.924;2022-07-23T11:05:45;97585.22;;;25.99;100.00
8697;BME280;4385;48.848;8.924;2022-07-23T11:08:15;97579.38;;;25.96;100.00
8697;BME280;4385;48.848;8.924;2022-07-23T11:10:42;97569.97;;;25.95;100.00
8697;BME280;4385;48.848;8.924;2022-07-23T11:13:28;97578.69;;;25.92;100.00
8697;BME280;4385;48.848;8.924;2022-07-23T11:26:58;97568.22;;;25.95;100.00
8697;BME280;4385;48.848;8.924;2022-07-23T11:34:45;97572.63;;;25.93;100.00
8697;BME280;4385;48.848;8.924;2022-07-23T11:37:39;97568.22;;;25.95;100.00
8697;BME280;4385;48.848;8.924;2022-07-23T11:40:10;97561.75;;;26.04;100.00
8697;BME280;4385;48.848;8.924;2022-07-23T11:42:37;97562.06;;;26.14;100.00
8697;BME280;4385;48.848;8.924;2022-07-23T11:45:05;97563.53;;;26.20;100.00
8697;BME280;4385;48.848;8.924;2022-07-23T11:47:30;97564.94;;;26.25;100.00
8697;BME280;4385;48.848;8.924;2022-07-23T11:49:57;97558.63;;;26.31;100.00
8697;BME280;4385;48.848;8.924;2022-07-23T11:52:24;97555.78;;;26.36;100.00
8697;BME280;4385;48.848;8.924;2022-07-23T11:57:18;97564.31;;;26.38;100.00
8697;BME280;4385;48.848;8.924;2022-07-23T11:59:46;97561.63;;;26.39;100.00
8697;BME280;4385;48.848;8.924;2022-07-23T12:02:12;97556.47;;;26.39;100.00
8697;BME280;4385;48.848;8.924;2022-07-23T12:07:36;97557.16;;;26.43;100.00
8697;BME280;4385;48.848;8.924;2022-07-23T12:10:10;97550.28;;;26.42;100.00
8697;BME280;4385;48.848;8.924;2022-07-23T12:12:42;97543.38;;;26.43;100.00
8697;BME280;4385;48.848;8.924;2022-07-23T12:15:09;97550.97;;;26.46;100.00
8697;BME280;4385;48.848;8.924;2022-07-23T12:17:37;97549.78;;;26.51;100.00
8697;BME280;4385;48.848;8.924;2022-07-23T12:20:05;97548.81;;;26.54;100.00
8697;BME280;4385;48.848;8.924;2022-07-23T12:22:39;97548.63;;;26.57;100.00
8697;BME280;4385;48.848;8.924;2022-07-23T12:25:10;97546.69;;;26.61;100.00
8697;BME280;4385;48.848;8.924;2022-07-23T12:27:36;97547.47;;;26.63;100.00
8697;BME280;4385;48.848;8.924;2022-07-23T12:30:25;97548.97;;;26.67;100.00
8697;BME280;4385;48.848;8.924;2022-07-23T12:32:56;97548.13;;;26.67;100.00
8697;BME280;4385;48.848;8.924;2022-07-23T12:35:23;97538.63;;;26.67;100.00
8697;BME280;4385;48.848;8.924;2022-07-23T12:38:00;97545.47;;;26.68;100.00
8697;BME280;4385;48.848;8.924;2022-07-23T12:40:29;97543.63;;;26.70;100.00
8697;BME280;4385;48.848;8.924;2022-07-23T12:43:03;97543.38;;;26.75;100.00
8697;BME280;4385;48.848;8.924;2022-07-23T12:50:50;97549.28;;;26.77;100.00
8697;BME280;4385;48.848;8.924;2022-07-23T12:53:20;97550.88;;;26.80;100.00
8697;BME280;4385;48.848;8.924;2022-07-23T12:55:46;97543.13;;;26.80;100.00
8697;BME280;4385;48.848;8.924;2022-07-23T12:58:15;97544.88;;;26.79;100.00
8697;BME280;4385;48.848;8.924;2022-07-23T13:03:31;97549.09;;;26.80;100.00
8697;BME280;4385;48.848;8.924;2022-07-23T13:05:58;97542.09;;;26.82;100.00
8697;BME280;4385;48.848;8.924;2022-07-23T13:08:25;97545.44;;;26.84;100.00
8697;BME280;4385;48.848;8.924;2022-07-23T13:10:51;97547.09;;;26.85;100.00
8697;BME280;4385;48.848;8.924;2022-07-23T13:13:22;97543.69;;;26.85;100.00
8697;BME280;4385;48.848;8.924;2022-07-23T13:15:48;97547.03;;;26.87;100.00
8697;BME280;4385;48.848;8.924;2022-07-23T13:18:13;97547.03;;;26.87;100.00
8697;BME280;4385;48.848;8.924;2022-07-23T13:20:39;97545.44;;;26.84;100.00
8697;BME280;4385;48.848;8.924;2022-07-23T13:23:06;97547.94;;;26.86;100.00
8697;BME280;4385;48.848;8.924;2022-07-23T13:25:31;97551.44;;;26.85;100.00
8697;BME280;4385;48.848;8.924;2022-07-23T13:27:56;97552.44;;;26.82;100.00
8697;BME280;4385;48.848;8.924;2022-07-23T13:30:22;97553.47;;;26.80;100.00
8697;BME280;4385;48.848;8.924;2022-07-23T13:32:48;97546.78;;;26.75;100.00
8697;BME280;4385;48.848;8.924;2022-07-23T13:35:13;97540.13;;;26.71;100.00
8697;BME280;4385;48.848;8.924;2022-07-23T13:37:39;97544.63;;;26.68;100.00
8697;BME280;4385;48.848;8.924;2022-07-23T13:40:05;97549.13;;;26.64;100.00
8697;BME280;4385;48.848;8.924;2022-07-23T13:42:30;97543.94;;;26.64;100.00
8697;BME280;4385;48.848;8.924;2022-07-23T13:44:55;97541.44;;;26.62;100.00
8697;BME280;4385;48.848;8.924;2022-07-23T13:47:21;97547.63;;;26.60;100.00
8697;BME280;4385;48.848;8.924;2022-07-23T13:49:46;97542.63;;;26.57;100.00
8697;BME280;4385;48.848;8.924;2022-07-23T13:52:11;97535.81;;;26.56;100.00
8697;BME280;4385;48.848;8.924;2022-07-23T13:54:37;97535.97;;;26.52;100.00
8697;BME280;4385;48.848;8.924;2022-07-23T13:57:02;97532.63;;;26.50;100.00
8697;BME280;4385;48.848;8.924;2022-07-23T13:59:28;97532.63;;;26.50;100.00
8697;BME280;4385;48.848;8.924;2022-07-23T14:01:54;97530.13;;;26.49;100.00
8697;BME280;4385;48.848;8.924;2022-07-23T14:04:20;97525.03;;;26.47;100.00